Observation data for Levelland on 04/22/2019      Previous  Date  Next       Current Mesonet Observations  Soil Data  Daily Summary Page  Observations in Plain Language
KLD1 220500Z 22010KT 18/M02 A2991 RMK A01 T01801021  RH  026%=      5-min Rain = 0
KLD1 220505Z 22009KT 18/M02 A2991 RMK A01 T01781021  RH  026%=      5-min Rain = 0
KLD1 220510Z 22009KT 18/M02 A2991 RMK A01 T01751020  RH  027%=      5-min Rain = 0
KLD1 220515Z 22010KT 17/M02 A2991 RMK A01 T01731020  RH  027%=      5-min Rain = 0
KLD1 220520Z 22010KT 18/M02 A2991 RMK A01 T01751019  RH  027%=      5-min Rain = 0
KLD1 220525Z 22010KT 17/M02 A2991 RMK A01 T01741019  RH  027%=      5-min Rain = 0
KLD1 220530Z 22011KT 17/M02 A2991 RMK A01 T01741019  RH  027%=      5-min Rain = 0
KLD1 220535Z 22011KT 17/M02 A2991 RMK A01 T01721019  RH  027%=      5-min Rain = 0
KLD1 220540Z 23011KT 17/M02 A2991 RMK A01 T01711018  RH  028%=      5-min Rain = 0
KLD1 220545Z 23010KT 17/M02 A2991 RMK A01 T01731017  RH  028%=      5-min Rain = 0
KLD1 220550Z 25011KT 18/M02 A2991 RMK A01 T01751016  RH  027%=      5-min Rain = 0
KLD1 220555Z 26011KT 16/M01 A299 RMK A01 T01621014  RH  030%=      5-min Rain = 0
KLD1 220600Z 26011KT 16/M01 A299 RMK A01 T01611013  RH  031%=      5-min Rain = 0
KLD1 220605Z 25011KT 17/M02 A299 RMK A01 T01661017  RH  029%=      5-min Rain = 0
KLD1 220610Z 25011KT 16/M02 A299 RMK A01 T01641016  RH  029%=      5-min Rain = 0
KLD1 220615Z 24011KT 16/M02 A299 RMK A01 T01641016  RH  029%=      5-min Rain = 0
KLD1 220620Z 19011G16KT 17/M02 A2991 RMK A01 T01691016  RH  029%=      5-min Rain = 0
KLD1 220625Z 19016G22KT 19/M02 A2991 RMK A01 T01861015  RH  026%=      5-min Rain = 0
KLD1 220630Z 19014KT 19/00 A2991 RMK A01 T01880000  RH  029%=      5-min Rain = 0
KLD1 220635Z 19013KT 19/02 A2991 RMK A01 T01850016  RH  033%=      5-min Rain = 0
KLD1 220640Z 19013KT 19/03 A2991 RMK A01 T01850030  RH  036%=      5-min Rain = 0
KLD1 220645Z 19012KT 18/04 A2991 RMK A01 T01830037  RH  039%=      5-min Rain = 0
KLD1 220650Z 19011KT 18/04 A2992 RMK A01 T01780042  RH  041%=      5-min Rain = 0
KLD1 220655Z 19010KT 17/05 A2992 RMK A01 T01740045  RH  043%=      5-min Rain = 0
KLD1 220700Z 19010KT 17/05 A2992 RMK A01 T01710052  RH  046%=      5-min Rain = 0
KLD1 220705Z 20012KT 17/07 A2992 RMK A01 T01730067  RH  051%=      5-min Rain = 0
KLD1 220710Z 20013KT 18/08 A2992 RMK A01 T01790079  RH  053%=      5-min Rain = 0
KLD1 220715Z 19011KT 18/08 A2992 RMK A01 T01810082  RH  054%=      5-min Rain = 0
KLD1 220720Z 19010KT 18/08 A2992 RMK A01 T01790083  RH  055%=      5-min Rain = 0
KLD1 220725Z 19010KT 18/08 A2992 RMK A01 T01770083  RH  056%=      5-min Rain = 0
KLD1 220730Z 19011KT 18/08 A2991 RMK A01 T01760084  RH  056%=      5-min Rain = 0
KLD1 220735Z 20011KT 18/09 A2991 RMK A01 T01750085  RH  057%=      5-min Rain = 0
KLD1 220740Z 20012G17KT 17/09 A2991 RMK A01 T01740086  RH  058%=      5-min Rain = 0
KLD1 220745Z 20014KT 18/09 A2991 RMK A01 T01750088  RH  058%=      5-min Rain = 0
KLD1 220750Z 20013KT 18/09 A2992 RMK A01 T01750089  RH  059%=      5-min Rain = 0
KLD1 220755Z 20013KT 17/09 A2992 RMK A01 T01730090  RH  060%=      5-min Rain = 0
KLD1 220800Z 20012KT 17/09 A2992 RMK A01 T01710091  RH  061%=      5-min Rain = 0
KLD1 220805Z 20013KT 17/09 A2992 RMK A01 T01700092  RH  062%=      5-min Rain = 0
KLD1 220810Z 20013KT 17/09 A2992 RMK A01 T01680093  RH  063%=      5-min Rain = 0
KLD1 220815Z 20012KT 17/10 A2992 RMK A01 T01670095  RH  064%=      5-min Rain = 0
KLD1 220820Z 21012KT 17/10 A2992 RMK A01 T01670096  RH  065%=      5-min Rain = 0
KLD1 220825Z 21010KT 17/10 A2992 RMK A01 T01670097  RH  065%=      5-min Rain = 0
KLD1 220830Z 20011KT 17/10 A2992 RMK A01 T01650098  RH  067%=      5-min Rain = 0
KLD1 220835Z 20012KT 17/10 A2992 RMK A01 T01650099  RH  067%=      5-min Rain = 0
KLD1 220840Z 20011KT 16/10 A2992 RMK A01 T01640099  RH  068%=      5-min Rain = 0
KLD1 220845Z 21010KT 16/10 A2992 RMK A01 T01620098  RH  068%=      5-min Rain = 0
KLD1 220850Z 21009KT 16/10 A2992 RMK A01 T01600098  RH  069%=      5-min Rain = 0
KLD1 220855Z 21009KT 16/10 A2993 RMK A01 T01570098  RH  070%=      5-min Rain = 0
KLD1 220900Z 21009KT 16/10 A2993 RMK A01 T01560099  RH  071%=      5-min Rain = 0
KLD1 220905Z 21007KT 16/10 A2993 RMK A01 T01550099  RH  071%=      5-min Rain = 0
KLD1 220910Z 21005KT 15/10 A2993 RMK A01 T01520098  RH  072%=      5-min Rain = 0
KLD1 220915Z 22003KT 15/10 A2993 RMK A01 T01500096  RH  073%=      5-min Rain = 0
KLD1 220920Z 29001KT 15/09 A2994 RMK A01 T01450094  RH  074%=      5-min Rain = 0
KLD1 220925Z 00003KT 13/08 A2994 RMK A01 T01280083  RH  076%=      5-min Rain = 0
KLD1 220930Z 35002KT 12/09 A2993 RMK A01 T01210086  RH  081%=      5-min Rain = 0
KLD1 220935Z 29000KT 12/09 A2993 RMK A01 T01220087  RH  081%=      5-min Rain = 0
KLD1 220940Z 25002KT 13/09 A2993 RMK A01 T01260092  RH  082%=      5-min Rain = 0
KLD1 220945Z 25003KT 14/10 A2993 RMK A01 T01360095  RH  079%=      5-min Rain = 0
KLD1 220950Z 24004KT 13/09 A2993 RMK A01 T01320089  RH  077%=      5-min Rain = 0
KLD1 220955Z 24005KT 13/09 A2993 RMK A01 T01280087  RH  079%=      5-min Rain = 0
KLD1 221000Z 23006KT 13/09 A2993 RMK A01 T01250086  RH  079%=      5-min Rain = 0
KLD1 221005Z 23006KT 12/09 A2993 RMK A01 T01220086  RH  081%=      5-min Rain = 0
KLD1 221010Z 23007KT 12/09 A2993 RMK A01 T01240089  RH  082%=      5-min Rain = 0
KLD1 221015Z 24007KT 12/09 A2993 RMK A01 T01240089  RH  082%=      5-min Rain = 0
KLD1 221020Z 23007KT 13/09 A2993 RMK A01 T01270094  RH  083%=      5-min Rain = 0
KLD1 221025Z 23005KT 13/10 A2993 RMK A01 T01330096  RH  081%=      5-min Rain = 0
KLD1 221030Z 23004KT 13/10 A2993 RMK A01 T01340097  RH  081%=      5-min Rain = 0
KLD1 221035Z 24003KT 13/09 A2993 RMK A01 T01290089  RH  079%=      5-min Rain = 0
KLD1 221040Z 30002KT 12/08 A2993 RMK A01 T01160084  RH  083%=      5-min Rain = 0
KLD1 221045Z 31002KT 11/08 A2993 RMK A01 T01090078  RH  084%=      5-min Rain = 0
KLD1 221050Z 30002KT 10/08 A2993 RMK A01 T01030077  RH  086%=      5-min Rain = 0
KLD1 221055Z 25002KT 11/09 A2993 RMK A01 T01090087  RH  089%=      5-min Rain = 0
KLD1 221100Z 21003KT 11/09 A2993 RMK A01 T01140086  RH  086%=      5-min Rain = 0
KLD1 221105Z 20004KT 12/09 A2993 RMK A01 T01160086  RH  084%=      5-min Rain = 0
KLD1 221110Z 21006KT 12/09 A2993 RMK A01 T01160087  RH  085%=      5-min Rain = 0
KLD1 221115Z 22006KT 12/09 A2993 RMK A01 T01180088  RH  085%=      5-min Rain = 0
KLD1 221120Z 33011G18KT 11/08 A2995 RMK A01 T01120084  RH  085%=      5-min Rain = 0
KLD1 221125Z 33010G17KT 13/10 A2996 RMK A01 T01250097  RH  086%=      5-min Rain = 0
KLD1 221130Z 33010KT 14/10 A2997 RMK A01 T01380096  RH  079%=      5-min Rain = 0
KLD1 221135Z 32007KT 14/09 A2996 RMK A01 T01380089  RH  075%=      5-min Rain = 0
KLD1 221140Z 33008KT 14/09 A2996 RMK A01 T01370090  RH  075%=      5-min Rain = 0
KLD1 221145Z 34006KT 14/09 A2997 RMK A01 T01370087  RH  074%=      5-min Rain = 0
KLD1 221150Z 33004KT 14/09 A2998 RMK A01 T01350085  RH  074%=      5-min Rain = 0
KLD1 221155Z 31003KT 13/08 A2998 RMK A01 T01330084  RH  074%=      5-min Rain = 0
KLD1 221200Z 31005KT 13/08 A2998 RMK A01 T01330083  RH  074%=      5-min Rain = 0
KLD1 221205Z 31004KT 13/08 A2998 RMK A01 T01310081  RH  074%=      5-min Rain = 0
KLD1 221210Z 33005KT 13/08 A2999 RMK A01 T01310080  RH  073%=      5-min Rain = 0
KLD1 221215Z 32005KT 13/08 A2999 RMK A01 T01260078  RH  074%=      5-min Rain = 0
KLD1 221220Z 33007KT 12/07 A2999 RMK A01 T01220074  RH  074%=      5-min Rain = 0
KLD1 221225Z 35008KT 12/06 A30 RMK A01 T01230061  RH  068%=      5-min Rain = 0
KLD1 221230Z 00010KT 12/04 A30 RMK A01 T01210042  RH  060%=      5-min Rain = 0
KLD1 221235Z 00012KT 12/04 A30 RMK A01 T01200038  RH  058%=      5-min Rain = 0
KLD1 221240Z 01012KT 12/04 A30 RMK A01 T01190039  RH  059%=      5-min Rain = 0
KLD1 221245Z 01012KT 12/04 A3001 RMK A01 T01190039  RH  059%=      5-min Rain = 0
KLD1 221250Z 01012KT 12/04 A3001 RMK A01 T01180041  RH  060%=      5-min Rain = 0
KLD1 221255Z 02011KT 12/04 A3001 RMK A01 T01180043  RH  061%=      5-min Rain = 0
KLD1 221300Z 02011KT 12/05 A3001 RMK A01 T01180045  RH  062%=      5-min Rain = 0
KLD1 221305Z 02012G20KT 12/05 A3001 RMK A01 T01200048  RH  063%=      5-min Rain = 0
KLD1 221310Z 02012KT 12/05 A3001 RMK A01 T01220050  RH  063%=      5-min Rain = 0
KLD1 221315Z 02012KT 12/05 A3002 RMK A01 T01230053  RH  064%=      5-min Rain = 0
KLD1 221320Z 02012KT 12/06 A3002 RMK A01 T01240055  RH  064%=      5-min Rain = 0
KLD1 221325Z 03012G17KT 13/06 A3002 RMK A01 T01250057  RH  065%=      5-min Rain = 0
KLD1 221330Z 03013G18KT 13/06 A3002 RMK A01 T01260058  RH  065%=      5-min Rain = 0
KLD1 221335Z 03015KT 13/06 A3002 RMK A01 T01280059  RH  064%=      5-min Rain = 0
KLD1 221340Z 03015KT 13/06 A3002 RMK A01 T01290060  RH  064%=      5-min Rain = 0
KLD1 221345Z 03015KT 13/06 A3002 RMK A01 T01300061  RH  064%=      5-min Rain = 0
KLD1 221350Z 03015KT 13/06 A3003 RMK A01 T01290061  RH  065%=      5-min Rain = 0
KLD1 221355Z 03014KT 13/06 A3003 RMK A01 T01310062  RH  064%=      5-min Rain = 0
KLD1 221400Z 03014G19KT 13/06 A3003 RMK A01 T01330063  RH  064%=      5-min Rain = 0
KLD1 221405Z 03015KT 13/06 A3003 RMK A01 T01320062  RH  064%=      5-min Rain = 0
KLD1 221410Z 03014KT 14/06 A3003 RMK A01 T01350064  RH  064%=      5-min Rain = 0
KLD1 221415Z 03015KT 14/06 A3003 RMK A01 T01380064  RH  062%=      5-min Rain = 0
KLD1 221420Z 02014KT 14/06 A3003 RMK A01 T01380064  RH  063%=      5-min Rain = 0
KLD1 221425Z 02014KT 14/06 A3004 RMK A01 T01380063  RH  062%=      5-min Rain = 0
KLD1 221430Z 02014KT 14/06 A3004 RMK A01 T01360063  RH  063%=      5-min Rain = 0
KLD1 221435Z 02015KT 14/06 A3004 RMK A01 T01360063  RH  063%=      5-min Rain = 0
KLD1 221440Z 02015KT 14/06 A3004 RMK A01 T01360064  RH  063%=      5-min Rain = 0
KLD1 221445Z 03014KT 14/06 A3004 RMK A01 T01370064  RH  063%=      5-min Rain = 0
KLD1 221450Z 03014KT 14/06 A3005 RMK A01 T01370064  RH  063%=      5-min Rain = 0
KLD1 221455Z 02014KT 14/07 A3005 RMK A01 T01380065  RH  063%=      5-min Rain = 0
KLD1 221500Z 02015KT 14/07 A3004 RMK A01 T01380066  RH  063%=      5-min Rain = 0
KLD1 221505Z 02015G20KT 14/07 A3004 RMK A01 T01370066  RH  063%=      5-min Rain = 0
KLD1 221510Z 02016G21KT 14/07 A3004 RMK A01 T01380066  RH  063%=      5-min Rain = 0
KLD1 221515Z 03017KT 14/07 A3004 RMK A01 T01400066  RH  063%=      5-min Rain = 0
KLD1 221520Z 03018KT 14/07 A3004 RMK A01 T01410067  RH  063%=      5-min Rain = 0
KLD1 221525Z 03018KT 14/07 A3003 RMK A01 T01430068  RH  062%=      5-min Rain = 0
KLD1 221530Z 02017KT 15/07 A3004 RMK A01 T01450069  RH  062%=      5-min Rain = 0
KLD1 221535Z 02017KT 15/07 A3004 RMK A01 T01500072  RH  061%=      5-min Rain = 0
KLD1 221540Z 03016KT 15/07 A3005 RMK A01 T01510072  RH  061%=      5-min Rain = 0
KLD1 221545Z 03016G21KT 15/07 A3005 RMK A01 T01520073  RH  061%=      5-min Rain = 0
KLD1 221550Z 03017KT 15/07 A3004 RMK A01 T01520072  RH  061%=      5-min Rain = 0
KLD1 221555Z 03016G21KT 16/08 A3004 RMK A01 T01560076  RH  060%=      5-min Rain = 0
KLD1 221600Z 04018KT 15/07 A3004 RMK A01 T01530073  RH  060%=      5-min Rain = 0
KLD1 221605Z 03017KT 16/08 A3004 RMK A01 T01550075  RH  060%=      5-min Rain = 0
KLD1 221610Z 02017G22KT 16/08 A3004 RMK A01 T01560076  RH  060%=      5-min Rain = 0
KLD1 221615Z 03017KT 16/08 A3004 RMK A01 T01550075  RH  060%=      5-min Rain = 0
KLD1 221620Z 03016KT 16/08 A3005 RMK A01 T01560076  RH  061%=      5-min Rain = 0
KLD1 221625Z 02015G20KT 16/08 A3005 RMK A01 T01580077  RH  060%=      5-min Rain = 0
KLD1 221630Z 02016KT 16/08 A3005 RMK A01 T01580077  RH  060%=      5-min Rain = 0
KLD1 221635Z 03017KT 16/08 A3005 RMK A01 T01580078  RH  060%=      5-min Rain = 0
KLD1 221640Z 03015KT 16/08 A3006 RMK A01 T01600078  RH  060%=      5-min Rain = 0
KLD1 221645Z 03014KT 16/08 A3006 RMK A01 T01610079  RH  060%=      5-min Rain = 0
KLD1 221650Z 04015KT 16/08 A3006 RMK A01 T01630079  RH  059%=      5-min Rain = 0
KLD1 221655Z 05014G19KT 16/08 A3006 RMK A01 T01640080  RH  059%=      5-min Rain = 0
KLD1 221700Z 04015KT 17/08 A3005 RMK A01 T01650080  RH  059%=      5-min Rain = 0
KLD1 221705Z 04016KT 17/08 A3005 RMK A01 T01650080  RH  059%=      5-min Rain = 0
KLD1 221710Z 04017KT 17/08 A3004 RMK A01 T01670081  RH  059%=      5-min Rain = 0
KLD1 221715Z 04018KT 17/08 A3003 RMK A01 T01680081  RH  058%=      5-min Rain = 0
KLD1 221720Z 03017G22KT 17/08 A3003 RMK A01 T01670082  RH  059%=      5-min Rain = 0
KLD1 221725Z 04017KT 17/08 A3004 RMK A01 T01690083  RH  058%=      5-min Rain = 0
KLD1 221730Z 04016G21KT 17/08 A3004 RMK A01 T01700082  RH  058%=      5-min Rain = 0
KLD1 221735Z 04017G22KT 17/08 A3004 RMK A01 T01720084  RH  058%=      5-min Rain = 0
KLD1 221740Z 05015G22KT 17/08 A3004 RMK A01 T01740084  RH  057%=      5-min Rain = 0
KLD1 221745Z 06015G22KT 18/09 A3004 RMK A01 T01760085  RH  057%=      5-min Rain = 0
KLD1 221750Z 05015KT 18/09 A3004 RMK A01 T01780086  RH  056%=      5-min Rain = 0
KLD1 221755Z 05015G20KT 18/09 A3005 RMK A01 T01830088  RH  056%=      5-min Rain = 0
KLD1 221800Z 06011G16KT 18/09 A3007 RMK A01 T01820087  RH  056%=      5-min Rain = 0
KLD1 221805Z 05013G18KT 18/09 A3006 RMK A01 T01820089  RH  056%=      5-min Rain = 0
KLD1 221810Z 05013KT 19/09 A3006 RMK A01 T01850089  RH  055%=      5-min Rain = 0
KLD1 221815Z 06012G17KT 19/09 A3006 RMK A01 T01860089  RH  055%=      5-min Rain = 0
KLD1 221820Z 05012KT 19/09 A3007 RMK A01 T01860088  RH  055%=      5-min Rain = 0
KLD1 221825Z 06011G16KT 19/09 A3006 RMK A01 T01870090  RH  055%=      5-min Rain = 0
KLD1 221830Z 05012KT 19/09 A3005 RMK A01 T01890091  RH  055%=      5-min Rain = 0
KLD1 221835Z 06011KT 19/09 A3006 RMK A01 T01880090  RH  055%=      5-min Rain = 0
KLD1 221840Z 05012KT 19/09 A3005 RMK A01 T01880090  RH  054%=      5-min Rain = 0
KLD1 221845Z 04008KT 19/09 A3006 RMK A01 T01870089  RH  055%=      5-min Rain = 0
KLD1 221850Z 03011KT 19/09 A3005 RMK A01 T01880091  RH  055%=      5-min Rain = 0
KLD1 221855Z 05013G18KT 19/09 A3004 RMK A01 T01900092  RH  054%=      5-min Rain = 0
KLD1 221900Z 05012KT 19/09 A3005 RMK A01 T01880090  RH  054%=      5-min Rain = 0
KLD1 221905Z 05010KT 19/09 A3006 RMK A01 T01890091  RH  055%=      5-min Rain = 0
KLD1 221910Z 05012G17KT 19/09 A3005 RMK A01 T01920092  RH  054%=      5-min Rain = 0
KLD1 221915Z 05012KT 19/09 A3005 RMK A01 T01920092  RH  054%=      5-min Rain = 0
KLD1 221920Z 05009G15KT 19/09 A3006 RMK A01 T01920092  RH  054%=      5-min Rain = 0
KLD1 221925Z 07010G15KT 19/09 A3007 RMK A01 T01920092  RH  054%=      5-min Rain = 0
KLD1 221930Z 03010KT 19/09 A3006 RMK A01 T01900091  RH  054%=      5-min Rain = 0
KLD1 221935Z 05011KT 19/09 A3005 RMK A01 T01920094  RH  054%=      5-min Rain = 0
KLD1 221940Z 05010G16KT 19/09 A3005 RMK A01 T01920092  RH  054%=      5-min Rain = 0
KLD1 221945Z 05013G20KT 19/10 A3004 RMK A01 T01940095  RH  054%=      5-min Rain = 0
KLD1 221950Z 06011KT 20/09 A3006 RMK A01 T01950093  RH  053%=      5-min Rain = 0
KLD1 221955Z 05012G18KT 20/09 A3005 RMK A01 T01950094  RH  054%=      5-min Rain = 0
KLD1 222000Z 06012KT 19/09 A3005 RMK A01 T01940093  RH  054%=      5-min Rain = 0
KLD1 222005Z 07013G22KT 20/09 A3006 RMK A01 T01950092  RH  053%=      5-min Rain = 0
KLD1 222010Z 07011KT 19/09 A3006 RMK A01 T01940093  RH  054%=      5-min Rain = 0
KLD1 222015Z 06009KT 19/09 A3006 RMK A01 T01930093  RH  054%=      5-min Rain = 0
KLD1 222020Z 05011KT 19/09 A3005 RMK A01 T01920092  RH  054%=      5-min Rain = 0
KLD1 222025Z 04009KT 19/09 A3005 RMK A01 T01920093  RH  054%=      5-min Rain = 0
KLD1 222030Z 05009KT 19/09 A3006 RMK A01 T01910092  RH  054%=      5-min Rain = 0
KLD1 222035Z 06008KT 19/09 A3006 RMK A01 T01890092  RH  055%=      5-min Rain = 0
KLD1 222040Z 04011G16KT 19/09 A3005 RMK A01 T01900092  RH  054%=      5-min Rain = 0
KLD1 222045Z 04011KT 19/09 A3006 RMK A01 T01900092  RH  055%=      5-min Rain = 0
KLD1 222050Z 05011KT 19/09 A3005 RMK A01 T01910093  RH  055%=      5-min Rain = 0
KLD1 222055Z 05014G20KT 19/09 A3005 RMK A01 T01920094  RH  055%=      5-min Rain = 0
KLD1 222100Z 05012KT 19/09 A3005 RMK A01 T01910094  RH  055%=      5-min Rain = 0
KLD1 222105Z 07010KT 19/09 A3006 RMK A01 T01880091  RH  055%=      5-min Rain = 0
KLD1 222110Z 06010KT 19/09 A3006 RMK A01 T01860092  RH  056%=      5-min Rain = 0
KLD1 222115Z 04011KT 19/09 A3005 RMK A01 T01860092  RH  056%=      5-min Rain = 0
KLD1 222120Z 05013KT 18/09 A3005 RMK A01 T01840092  RH  057%=      5-min Rain = 0
KLD1 222125Z 05013G19KT 18/10 A3005 RMK A01 T01800099  RH  061%=      5-min Rain = 0
KLD1 222130Z 07009KT 17/11 A3007 RMK A01 T01730107  RH  067%=      5-min Rain = 0
KLD1 222135Z 07012KT 17/11 A3006 RMK A01 T01720108  RH  068%=      5-min Rain = 0
KLD1 222140Z 06012KT 17/11 A3005 RMK A01 T01720107  RH  068%=      5-min Rain = 0
KLD1 222145Z 05014KT 17/11 A3005 RMK A01 T01710106  RH  068%=      5-min Rain = 0
KLD1 222150Z 05014KT 17/11 A3005 RMK A01 T01700107  RH  068%=      5-min Rain = 0
KLD1 222155Z 05013KT 17/11 A3005 RMK A01 T01720106  RH  067%=      5-min Rain = 0
KLD1 222200Z 05012KT 17/11 A3004 RMK A01 T01720107  RH  068%=      5-min Rain = 0
KLD1 222205Z 04012KT 17/11 A3004 RMK A01 T01710108  RH  069%=      5-min Rain = 0
KLD1 222210Z 04014KT 17/11 A3004 RMK A01 T01700105  RH  068%=      5-min Rain = 0
KLD1 222215Z 03013G18KT 17/11 A3004 RMK A01 T01680107  RH  069%=      5-min Rain = 0
KLD1 222220Z 04013KT 17/11 A3005 RMK A01 T01680105  RH  068%=      5-min Rain = 0
KLD1 222225Z 04011G16KT 17/11 A3005 RMK A01 T01680105  RH  069%=      5-min Rain = 0
KLD1 222230Z 05012KT 17/11 A3006 RMK A01 T01660109  RH  071%=      5-min Rain = 0
KLD1 222235Z 05013KT 16/11 A3006 RMK A01 T01630110  RH  073%=      5-min Rain = 0
KLD1 222240Z 05012KT 16/11 A3006 RMK A01 T01610112  RH  076%=      5-min Rain = 0
KLD1 222245Z 05012G17KT 16/12 A3006 RMK A01 T01590115  RH  078%=      5-min Rain = 0
KLD1 222250Z 05016KT 16/11 A3005 RMK A01 T01590112  RH  076%=      5-min Rain = 0
KLD1 222255Z 05017KT 16/11 A3004 RMK A01 T01580114  RH  078%=      5-min Rain = 0
KLD1 222300Z 05016KT 16/11 A3004 RMK A01 T01570114  RH  078%=      5-min Rain = 0
KLD1 222305Z 05016KT 16/12 A3004 RMK A01 T01560115  RH  080%=      5-min Rain = 0
KLD1 222310Z 05016G22KT 16/12 A3004 RMK A01 T01550115  RH  080%=      5-min Rain = 0
KLD1 222315Z 04017G22KT 16/12 A3004 RMK A01 T01550115  RH  080%=      5-min Rain = 0
KLD1 222320Z 05017KT 16/12 A3004 RMK A01 T01550115  RH  080%=      5-min Rain = 0
KLD1 222325Z 05016KT 16/11 A3004 RMK A01 T01550114  RH  079%=      5-min Rain = 0
KLD1 222330Z 04015KT 16/12 A3004 RMK A01 T01550115  RH  080%=      5-min Rain = 0
KLD1 222335Z 04015KT 15/11 A3004 RMK A01 T01540114  RH  080%=      5-min Rain = 0
KLD1 222340Z 03015KT 15/12 A3004 RMK A01 T01540115  RH  080%=      5-min Rain = 0
KLD1 222345Z 04018KT 15/11 A3003 RMK A01 T01530114  RH  080%=      5-min Rain = 0
KLD1 222350Z 04018G23KT 15/11 A3003 RMK A01 T01520113  RH  080%=      5-min Rain = 0
KLD1 222355Z 04016KT 15/11 A3003 RMK A01 T01510113  RH  081%=      5-min Rain = 0
KLD1 230000Z 03015G20KT 15/11 A3003 RMK A01 T01500113  RH  082%=      5-min Rain = 0
KLD1 230005Z 03016KT 15/11 A3003 RMK A01 T01490113  RH  082%=      5-min Rain = 0
KLD1 230010Z 04012KT 15/11 A3003 RMK A01 T01490114  RH  083%=      5-min Rain = 0
KLD1 230015Z 05011KT 15/12 A3004 RMK A01 T01490116  RH  084%=      5-min Rain = 0
KLD1 230020Z 05011KT 15/12 A3005 RMK A01 T01500117  RH  084%=      5-min Rain = 0
KLD1 230025Z 06013KT 15/11 A3005 RMK A01 T01520113  RH  080%=      5-min Rain = 0
KLD1 230030Z 06016KT 15/11 A3005 RMK A01 T01540108  RH  076%=      5-min Rain = 0
KLD1 230035Z 06014KT 15/11 A3005 RMK A01 T01540107  RH  076%=      5-min Rain = 0
KLD1 230040Z 06015KT 15/11 A3005 RMK A01 T01520109  RH  078%=      5-min Rain = 0
KLD1 230045Z 05014KT 15/11 A3005 RMK A01 T01490111  RH  081%=      5-min Rain = 0
KLD1 230050Z 05017KT 15/11 A3005 RMK A01 T01470111  RH  082%=      5-min Rain = 0.01
KLD1 230055Z 05012G17KT 15/11 A3005 RMK A01 T01450113  RH  084%=      5-min Rain = 0.01
KLD1 230100Z 05015G21KT 14/11 A3004 RMK A01 T01430114  RH  086%=      5-min Rain = 0
KLD1 230105Z 04016KT 14/11 A3003 RMK A01 T01420114  RH  087%=      5-min Rain = 0
KLD1 230110Z 05015KT 14/11 A3004 RMK A01 T01410113  RH  087%=      5-min Rain = 0
KLD1 230115Z 05012G18KT 14/12 A3005 RMK A01 T01400115  RH  088%=      5-min Rain = 0
KLD1 230120Z 05014KT 14/12 A3005 RMK A01 T01400115  RH  088%=      5-min Rain = 0
KLD1 230125Z 06014KT 14/12 A3005 RMK A01 T01400116  RH  088%=      5-min Rain = 0
KLD1 230130Z 06014KT 14/12 A3006 RMK A01 T01400115  RH  088%=      5-min Rain = 0
KLD1 230135Z 05014KT 14/12 A3005 RMK A01 T01390116  RH  089%=      5-min Rain = 0
KLD1 230140Z 05014KT 14/12 A3005 RMK A01 T01390116  RH  090%=      5-min Rain = 0
KLD1 230145Z 04014KT 14/12 A3004 RMK A01 T01370116  RH  090%=      5-min Rain = 0
KLD1 230150Z 03016KT 14/12 A3002 RMK A01 T01360117  RH  091%=      5-min Rain = 0
KLD1 230155Z 03015KT 14/12 A3002 RMK A01 T01350116  RH  092%=      5-min Rain = 0
KLD1 230200Z 04013KT 13/12 A3003 RMK A01 T01340116  RH  092%=      5-min Rain = 0
KLD1 230205Z 03014KT 13/12 A3002 RMK A01 T01330116  RH  092%=      5-min Rain = 0
KLD1 230210Z 04013KT 13/12 A3003 RMK A01 T01330116  RH  093%=      5-min Rain = 0
KLD1 230215Z 04014KT 13/12 A3003 RMK A01 T01340116  RH  092%=      5-min Rain = 0
KLD1 230220Z 04015KT 14/12 A3004 RMK A01 T01350116  RH  092%=      5-min Rain = 0
KLD1 230225Z 04014G19KT 14/12 A3004 RMK A01 T01350116  RH  092%=      5-min Rain = 0
KLD1 230230Z 04014KT 14/12 A3004 RMK A01 T01350116  RH  092%=      5-min Rain = 0
KLD1 230235Z 05015G21KT 14/12 A3004 RMK A01 T01350115  RH  091%=      5-min Rain = 0
KLD1 230240Z 05014G19KT 13/12 A3005 RMK A01 T01330115  RH  092%=      5-min Rain = 0
KLD1 230245Z 05011G16KT 13/12 A3006 RMK A01 T01320115  RH  093%=      5-min Rain = 0
KLD1 230250Z 05008KT 13/12 A3007 RMK A01 T01320116  RH  093%=      5-min Rain = 0
KLD1 230255Z 05008KT 13/12 A3007 RMK A01 T01330116  RH  093%=      5-min Rain = 0
KLD1 230300Z 05011KT 13/12 A3006 RMK A01 T01330116  RH  093%=      5-min Rain = 0
KLD1 230305Z 05014KT 13/12 A3005 RMK A01 T01330115  RH  093%=      5-min Rain = 0
KLD1 230310Z 06015KT 13/12 A3004 RMK A01 T01320115  RH  093%=      5-min Rain = 0
KLD1 230315Z 06016KT 13/12 A3004 RMK A01 T01310115  RH  093%=      5-min Rain = 0
KLD1 230320Z 06016KT 13/11 A3004 RMK A01 T01310114  RH  093%=      5-min Rain = 0
KLD1 230325Z 05015KT 13/11 A3005 RMK A01 T01310113  RH  092%=      5-min Rain = 0
KLD1 230330Z 05013KT 13/11 A3005 RMK A01 T01300111  RH  092%=      5-min Rain = 0
KLD1 230335Z 04011KT 13/11 A3006 RMK A01 T01290111  RH  092%=      5-min Rain = 0
KLD1 230340Z 04011KT 13/11 A3005 RMK A01 T01290113  RH  093%=      5-min Rain = 0
KLD1 230345Z 04012KT 13/11 A3005 RMK A01 T01290113  RH  093%=      5-min Rain = 0
KLD1 230350Z 05014KT 13/11 A3005 RMK A01 T01290113  RH  093%=      5-min Rain = 0
KLD1 230355Z 05015KT 13/11 A3004 RMK A01 T01290112  RH  093%=      5-min Rain = 0
KLD1 230400Z 05014KT 13/11 A3004 RMK A01 T01280112  RH  093%=      5-min Rain = 0
KLD1 230405Z 04016KT 13/11 A3003 RMK A01 T01270111  RH  093%=      5-min Rain = 0
KLD1 230410Z 04015G20KT 13/11 A3003 RMK A01 T01250109  RH  093%=      5-min Rain = 0
KLD1 230415Z 04016KT 13/11 A3004 RMK A01 T01250108  RH  093%=      5-min Rain = 0
KLD1 230420Z 05014G19KT 13/11 A3004 RMK A01 T01250108  RH  093%=      5-min Rain = 0
KLD1 230425Z 05013KT 13/11 A3005 RMK A01 T01250109  RH  093%=      5-min Rain = 0
KLD1 230430Z 04012KT 13/11 A3005 RMK A01 T01250109  RH  093%=      5-min Rain = 0
KLD1 230435Z 04013G18KT 13/11 A3006 RMK A01 T01250109  RH  093%=      5-min Rain = 0
KLD1 230440Z 04012KT 13/11 A3006 RMK A01 T01250108  RH  093%=      5-min Rain = 0
KLD1 230445Z 04011KT 12/11 A3006 RMK A01 T01240108  RH  093%=      5-min Rain = 0
KLD1 230450Z 04011KT 12/11 A3006 RMK A01 T01240108  RH  093%=      5-min Rain = 0
KLD1 230455Z 04012KT 12/11 A3006 RMK A01 T01230107  RH  093%=      5-min Rain = 0

Page generated in 0.0214 seconds.